Portada
METAR-TAF:

METAR-TAF

Aeropuertos :

Aeropuerto Internacional de Santo-Pekoa

Luganville, Espíritu Santo, Vanuatu

latitud: 15-31S, longitud: 167-13E, altitud: 41 m

Observación

El informe se hizo hace 27 minutos, a las 12:00 UTC
Viento 3 kt del sureste
Temperatura 26°C
Humedad 89%
Presión 1014 hPa
Visibilidad 10 km o más
Escasas nubes a una altura de 2000 ft

METAR: NVSS 021200Z 13003KT 9999 FEW020 26/24 Q1014

Hora: 23:27 (12:27 UTC)

Pronóstico

El informe se hizo hace 2 horas y 27 minutos, a las 10:00 UTC
Pronóstico válido del 02 a las 12 UTC al 03 a las 12 UTC
Viento 2 kt con dirección variable
Visibilidad 10 km o más
Nubes dispersas a una altura de 2000 ft
Probabilidad 40%
entre IN y TE UTC
Visibilidad: 9000 m
Cielo nuboso a una altura de 1800 ft
chaparrones de lluvia

TAF: NVSS 021000Z 0212/0312 VRB02KT 9999 SCT020 PROB40 INTER 0212/0218 9000 -SHRA BKN018

Observaciones y pronósticos meteorológicos de más de 4000 aeropuertos (mensajes METAR y TAF).

Los puntos amarillos y rojos representan las estaciones disponibles.

Ponga el ratón en el punto deseado para ver el nombre de la estación.

Haga clic para ver las observaciones y los pronósticos meteorológicos.

Para cambiar el mapa : haga clic en los botones verdes con una cruz de color negro para hacer un zoom, en el botón verde con un guión para alejar o en las flechas verdes para mapas adyacentes.


METAR-TAF: